createdAt,value
2018-04-08T00:02:02.583Z,6.77
2018-04-08T00:04:30.105Z,7.43
2018-04-08T00:06:57.583Z,11.83
2018-04-08T00:09:25.108Z,10.40
2018-04-08T00:11:53.351Z,13.93
2018-04-08T00:14:20.873Z,7.70
2018-04-08T00:16:49.120Z,8.50
2018-04-08T00:19:16.650Z,7.43
2018-04-08T00:21:44.136Z,7.27
2018-04-08T00:24:11.661Z,10.70
2018-04-08T00:26:39.147Z,10.70
2018-04-08T00:29:07.444Z,14.43
2018-04-08T00:31:34.942Z,9.60
2018-04-08T00:34:02.463Z,8.70
2018-04-08T00:36:29.947Z,7.20
2018-04-08T00:38:58.259Z,9.70
2018-04-08T00:41:25.744Z,11.97
2018-04-08T00:43:53.450Z,9.03
2018-04-08T00:46:20.939Z,13.07
2018-04-08T00:48:48.431Z,10.97
2018-04-08T00:51:16.719Z,12.00
2018-04-08T00:53:44.207Z,10.17
2018-04-08T00:56:11.734Z,9.33
2018-04-08T00:58:39.226Z,10.40
2018-04-08T01:01:06.744Z,11.10
2018-04-08T01:03:34.226Z,10.27
2018-04-08T01:06:01.744Z,13.47
2018-04-08T01:08:30.029Z,11.50
2018-04-08T01:10:57.571Z,9.50
2018-04-08T01:13:25.059Z,7.83
2018-04-08T01:15:52.583Z,10.40
2018-04-08T01:18:20.071Z,9.70
2018-04-08T01:20:47.598Z,9.80
2018-04-08T01:23:15.879Z,12.87
2018-04-08T01:25:43.434Z,9.37
2018-04-08T01:28:11.717Z,8.90
2018-04-08T01:30:39.208Z,9.23
2018-04-08T01:33:07.494Z,11.03
2018-04-08T01:35:34.975Z,9.30
2018-04-08T01:38:03.326Z,8.20
2018-04-08T01:40:30.818Z,15.80
2018-04-08T01:42:58.331Z,8.30
2018-04-08T01:45:25.812Z,9.13
2018-04-08T01:47:53.323Z,9.50
2018-04-08T01:50:20.837Z,9.70
2018-04-08T01:52:48.409Z,9.20
2018-04-08T01:55:15.903Z,8.23
2018-04-08T01:57:43.418Z,7.40
2018-04-08T02:00:19.069Z,11.30
2018-04-08T02:02:51.943Z,9.70
2018-04-08T02:05:21.270Z,14.33
2018-04-08T02:08:02.377Z,13.70
2018-04-08T02:10:29.971Z,7.77
2018-04-08T02:12:58.250Z,9.37
2018-04-08T02:15:25.784Z,6.77
2018-04-08T02:17:53.284Z,9.87
2018-04-08T02:20:20.775Z,10.37
2018-04-08T02:22:48.298Z,7.60
2018-04-08T02:25:15.782Z,9.47
2018-04-08T02:27:43.267Z,8.83
2018-04-08T02:30:10.789Z,9.30
2018-04-08T02:32:38.279Z,11.90
2018-04-08T02:35:05.829Z,7.87
2018-04-08T02:37:33.313Z,6.53
2018-04-08T02:40:00.833Z,8.40
2018-04-08T02:42:29.112Z,8.57
2018-04-08T02:44:56.628Z,8.10
2018-04-08T02:47:24.114Z,7.10
2018-04-08T02:49:51.648Z,6.20
2018-04-08T02:52:19.905Z,8.33
2018-04-08T02:54:47.431Z,7.30
2018-04-08T02:57:15.206Z,6.30
2018-04-08T02:59:42.719Z,10.17
2018-04-08T03:02:10.216Z,12.20
2018-04-08T03:04:37.736Z,9.90
2018-04-08T03:07:05.229Z,7.07
2018-04-08T03:09:32.763Z,13.33
2018-04-08T03:12:00.258Z,10.33
2018-04-08T03:14:27.824Z,9.47
2018-04-08T03:16:55.298Z,9.40
2018-04-08T03:19:22.811Z,7.93
2018-04-08T03:21:50.302Z,8.70
2018-04-08T03:24:18.601Z,8.73
2018-04-08T03:26:46.096Z,8.70
2018-04-08T03:29:13.611Z,9.20
2018-04-08T03:31:41.092Z,9.30
2018-04-08T03:34:09.391Z,12.93
2018-04-08T03:36:36.878Z,10.40
2018-04-08T03:39:04.372Z,14.57
2018-04-08T03:41:31.887Z,14.60
2018-04-08T03:43:59.370Z,11.63
2018-04-08T03:46:27.663Z,17.73
2018-04-08T03:48:55.921Z,10.13
2018-04-08T03:51:23.443Z,10.53
2018-04-08T03:53:51.682Z,7.73
2018-04-08T03:56:19.207Z,8.67
2018-04-08T03:58:46.715Z,13.30
2018-04-08T04:01:14.276Z,8.57
2018-04-08T04:03:41.773Z,9.17
2018-04-08T04:06:09.291Z,8.67
2018-04-08T04:08:36.788Z,11.47
2018-04-08T04:11:04.309Z,7.30
2018-04-08T04:13:32.578Z,12.43
2018-04-08T04:16:00.148Z,9.80
2018-04-08T04:18:39.489Z,7.67
2018-04-08T04:21:18.799Z,12.93
2018-04-08T04:23:58.101Z,7.90
2018-04-08T04:26:31.562Z,21.10
2018-04-08T04:28:59.048Z,11.80
2018-04-08T04:31:26.580Z,7.13
2018-04-08T04:33:54.065Z,11.27
2018-04-08T04:36:21.554Z,10.13
2018-04-08T04:38:49.090Z,15.87
2018-04-08T04:41:17.342Z,17.40
2018-04-08T04:43:44.911Z,9.03
2018-04-08T04:46:12.363Z,8.10
2018-04-08T04:48:39.908Z,10.23
2018-04-08T04:51:07.423Z,13.63
2018-04-08T04:53:34.948Z,11.40
2018-04-08T04:56:02.443Z,8.63
2018-04-08T04:58:29.958Z,10.00
2018-04-08T05:00:57.460Z,15.10
2018-04-08T05:03:25.750Z,11.17
2018-04-08T05:05:53.269Z,10.10
2018-04-08T05:08:20.791Z,11.00
2018-04-08T05:10:48.291Z,9.03
2018-04-08T05:13:15.953Z,8.17
2018-04-08T05:15:43.459Z,11.17
2018-04-08T05:18:10.979Z,11.20
2018-04-08T05:20:38.495Z,9.00
2018-04-08T05:23:06.048Z,8.00
2018-04-08T05:25:33.561Z,20.10
2018-04-08T05:28:01.082Z,19.90
2018-04-08T05:30:28.561Z,6.63
2018-04-08T05:32:56.042Z,9.90
2018-04-08T05:35:23.553Z,8.57
2018-04-08T05:37:51.077Z,9.33
2018-04-08T05:40:18.612Z,14.27
2018-04-08T05:42:46.159Z,10.07
2018-04-08T05:45:13.691Z,14.93
2018-04-08T05:47:41.184Z,8.93
2018-04-08T05:50:08.730Z,7.80
2018-04-08T05:52:36.210Z,9.97
2018-04-08T05:55:03.727Z,8.97
2018-04-08T05:57:31.220Z,10.10
2018-04-08T05:59:58.773Z,13.23
2018-04-08T06:02:26.257Z,9.80
2018-04-08T06:04:54.535Z,11.47
2018-04-08T06:07:22.023Z,7.33
2018-04-08T06:09:49.547Z,8.30
2018-04-08T06:12:17.043Z,13.23
2018-04-08T06:14:44.591Z,9.57
2018-04-08T06:17:12.079Z,13.63
2018-04-08T06:19:39.615Z,8.40
2018-04-08T06:22:07.342Z,10.20
2018-04-08T06:24:34.854Z,10.77
2018-04-08T06:27:02.368Z,9.70
2018-04-08T06:29:29.889Z,11.30
2018-04-08T06:31:57.475Z,13.07
2018-04-08T06:34:24.994Z,11.23
2018-04-08T06:36:52.515Z,10.60
2018-04-08T06:39:19.999Z,14.20
2018-04-08T06:41:47.523Z,8.90
2018-04-08T06:44:15.774Z,9.50
2018-04-08T06:46:44.232Z,12.23
2018-04-08T06:49:11.719Z,8.70
2018-04-08T06:51:39.261Z,13.43
2018-04-08T06:54:06.760Z,11.50
2018-04-08T06:56:34.303Z,9.27
2018-04-08T06:59:01.788Z,9.43
2018-04-08T07:01:29.319Z,11.57
2018-04-08T07:03:56.812Z,10.90
2018-04-08T07:06:25.119Z,11.67
2018-04-08T07:08:52.623Z,10.20
2018-04-08T07:11:20.172Z,10.67
2018-04-08T07:13:47.683Z,10.47
2018-04-08T07:16:15.176Z,12.17
2018-04-08T07:18:43.463Z,10.23
2018-04-08T07:21:11.719Z,9.87
2018-04-08T07:23:39.250Z,12.83
2018-04-08T07:26:06.732Z,22.10
2018-04-08T07:28:34.237Z,8.93
2018-04-08T07:31:01.758Z,9.10
2018-04-08T07:33:29.275Z,12.03
2018-04-08T07:35:56.766Z,11.33
2018-04-08T07:38:24.286Z,9.40
2018-04-08T07:40:51.772Z,9.33
2018-04-08T07:43:19.304Z,9.70
2018-04-08T07:45:47.554Z,10.03
2018-04-08T07:48:15.072Z,15.13
2018-04-08T07:50:42.567Z,10.67
2018-04-08T07:53:10.092Z,8.67
2018-04-08T07:55:37.576Z,12.70
2018-04-08T07:58:05.093Z,11.50
2018-04-08T08:00:32.575Z,11.00
2018-04-08T08:03:00.091Z,11.57
2018-04-08T08:05:27.577Z,18.43
2018-04-08T08:07:55.114Z,13.00
2018-04-08T08:10:22.601Z,9.03
2018-04-08T08:12:50.080Z,11.87
2018-04-08T08:15:18.372Z,10.73
2018-04-08T08:17:46.666Z,9.77
2018-04-08T08:20:14.970Z,8.17
2018-04-08T08:22:42.459Z,9.83
2018-04-08T08:25:10.024Z,15.07
2018-04-08T08:27:37.525Z,13.67
2018-04-08T08:30:05.151Z,11.30
2018-04-08T08:32:33.390Z,12.33
2018-04-08T08:35:00.905Z,12.87
2018-04-08T08:37:28.403Z,11.53
2018-04-08T08:39:55.935Z,9.87
2018-04-08T08:42:24.197Z,11.40
2018-04-08T08:44:51.722Z,16.13
2018-04-08T08:47:19.211Z,11.13
2018-04-08T08:49:46.729Z,20.97
2018-04-08T08:52:15.019Z,19.40
2018-04-08T08:54:43.300Z,11.00
2018-04-08T08:57:10.779Z,13.30
2018-04-08T08:59:39.063Z,14.53
2018-04-08T09:02:07.324Z,16.47
2018-04-08T09:04:34.848Z,11.93
2018-04-08T09:07:02.350Z,12.40
2018-04-08T09:09:29.878Z,12.17
2018-04-08T09:11:57.354Z,11.80
2018-04-08T09:14:25.675Z,14.10
2018-04-08T09:16:53.163Z,13.93
2018-04-08T09:19:26.424Z,12.90
2018-04-08T09:25:07.383Z,13.57
2018-04-08T09:27:36.620Z,15.60
2018-04-08T09:30:04.196Z,14.10
2018-04-08T09:32:31.696Z,14.70
2018-04-08T09:34:59.964Z,15.63
2018-04-08T09:37:27.503Z,17.90
2018-04-08T09:39:55.008Z,17.03
2018-04-08T09:42:22.531Z,17.37
2018-04-08T09:44:50.023Z,17.23
2018-04-08T09:47:17.543Z,17.03
2018-04-08T09:49:45.850Z,19.13
2018-04-08T09:52:13.419Z,17.50
2018-04-08T09:54:40.955Z,12.43
2018-04-08T09:57:08.492Z,27.33
2018-04-08T09:59:36.010Z,16.40
2018-04-08T10:02:08.358Z,23.03
2018-04-08T10:04:36.615Z,16.07
2018-04-08T10:07:04.137Z,15.97
2018-04-08T10:09:31.627Z,22.60
2018-04-08T10:11:59.922Z,23.03
2018-04-08T10:14:28.180Z,17.90
2018-04-08T10:16:55.704Z,17.03
2018-04-08T10:19:23.205Z,17.10
2018-04-08T10:21:50.727Z,18.57
2018-04-08T10:24:18.242Z,20.30
2018-04-08T10:26:45.766Z,20.63
2018-04-08T10:29:13.297Z,22.77
2018-04-08T10:31:40.816Z,17.77
2018-04-08T10:34:09.116Z,16.27
2018-04-08T10:36:36.687Z,18.43
2018-04-08T10:39:04.950Z,23.50
2018-04-08T10:41:32.468Z,16.37
2018-04-08T10:43:59.990Z,18.13
2018-04-08T10:46:27.496Z,23.70
2018-04-08T10:48:55.087Z,19.90
2018-04-08T10:51:22.580Z,19.70
2018-04-08T10:53:50.103Z,22.60
2018-04-08T10:56:18.358Z,19.60
2018-04-08T10:58:45.879Z,18.40
2018-04-08T11:01:13.399Z,16.00
2018-04-08T11:03:40.919Z,16.47
2018-04-08T11:06:08.422Z,20.17
2018-04-08T11:08:35.951Z,19.00
2018-04-08T11:11:04.210Z,21.33
2018-04-08T11:13:31.747Z,18.87
2018-04-08T11:15:59.262Z,21.53
2018-04-08T11:18:28.030Z,16.80
2018-04-08T11:20:55.536Z,19.70
2018-04-08T11:23:23.794Z,19.50
2018-04-08T11:25:51.312Z,23.20
2018-04-08T11:28:18.816Z,21.13
2018-04-08T11:30:46.343Z,20.70
2018-04-08T11:33:14.615Z,17.70
2018-04-08T11:35:42.232Z,16.23
2018-04-08T11:38:09.718Z,17.43
2018-04-08T11:40:37.263Z,20.07
2018-04-08T11:43:05.519Z,28.60
2018-04-08T11:45:33.055Z,19.67
2018-04-08T11:48:00.550Z,21.13
2018-04-08T11:50:28.111Z,22.37
2018-04-08T11:52:55.598Z,20.13
2018-04-08T11:55:23.139Z,16.43
2018-04-08T11:57:50.656Z,16.00
2018-04-08T12:00:18.270Z,13.57
2018-04-08T12:02:45.762Z,15.93
2018-04-08T12:05:13.347Z,19.50
2018-04-08T12:07:40.883Z,16.77
2018-04-08T12:10:08.400Z,17.93
2018-04-08T12:12:35.906Z,21.90
2018-04-08T12:15:03.450Z,18.43
2018-04-08T12:17:30.963Z,17.30
2018-04-08T12:19:59.247Z,18.80
2018-04-08T12:22:26.745Z,16.87
2018-04-08T12:24:54.438Z,21.77
2018-04-08T12:27:21.948Z,19.73
2018-04-08T12:29:49.511Z,16.17
2018-04-08T12:32:17.060Z,19.67
2018-04-08T12:34:44.553Z,15.77
2018-04-08T12:37:12.034Z,15.20
2018-04-08T12:39:39.552Z,14.70
2018-04-08T12:42:07.067Z,20.73
2018-04-08T12:44:34.564Z,15.80
2018-04-08T12:47:02.848Z,12.97
2018-04-08T12:49:31.102Z,11.87
2018-04-08T12:51:58.656Z,10.00
2018-04-08T12:54:26.125Z,11.27
2018-04-08T12:56:53.691Z,15.67
2018-04-08T12:59:21.182Z,13.43
2018-04-08T13:01:48.707Z,12.60
2018-04-08T13:04:16.200Z,14.17
2018-04-08T13:06:43.719Z,14.37
2018-04-08T13:09:11.208Z,15.73
2018-04-08T13:11:38.754Z,13.93
2018-04-08T13:14:06.284Z,16.50
2018-04-08T13:16:34.840Z,14.10
2018-04-08T13:19:02.416Z,13.83
2018-04-08T13:21:30.671Z,11.60
2018-04-08T13:23:58.291Z,13.53
2018-04-08T13:26:26.547Z,15.20
2018-04-08T13:28:54.083Z,11.53
2018-04-08T13:31:21.587Z,13.73
2018-04-08T13:33:49.108Z,13.63
2018-04-08T13:36:16.597Z,17.20
2018-04-08T13:38:44.167Z,15.03
2018-04-08T13:41:11.683Z,18.13
2018-04-08T13:43:40.708Z,16.27
2018-04-08T13:46:08.293Z,16.70
2018-04-08T13:48:36.585Z,15.70
2018-04-08T13:51:04.834Z,14.80
2018-04-08T13:53:32.378Z,11.80
2018-04-08T13:55:59.862Z,17.00
2018-04-08T13:58:27.398Z,16.27
2018-04-08T14:00:54.893Z,17.83
2018-04-08T14:03:22.376Z,8.37
2018-04-08T14:05:49.923Z,15.83
2018-04-08T14:08:17.402Z,11.33
2018-04-08T14:10:44.923Z,11.47
2018-04-08T14:13:12.407Z,14.00
2018-04-08T14:15:40.724Z,11.30
2018-04-08T14:18:08.216Z,14.00
2018-04-08T14:20:36.407Z,11.83
2018-04-08T14:23:03.886Z,7.13
2018-04-08T14:25:31.503Z,14.67
2018-04-08T14:27:59.755Z,21.47
2018-04-08T14:30:27.287Z,16.87
2018-04-08T14:32:54.770Z,8.00
2018-04-08T14:35:22.304Z,15.33
2018-04-08T14:37:50.565Z,8.83
2018-04-08T14:40:18.099Z,14.23
2018-04-08T14:42:45.600Z,9.67
2018-04-08T14:45:13.161Z,10.20
2018-04-08T14:47:40.726Z,14.37
2018-04-08T14:50:08.265Z,11.37
2018-04-08T14:52:35.775Z,8.83
2018-04-08T14:55:03.335Z,15.13
2018-04-08T14:57:30.826Z,9.20
2018-04-08T14:59:58.355Z,10.80
2018-04-08T15:02:25.839Z,8.07
2018-04-08T15:04:53.339Z,12.23
2018-04-08T15:07:20.859Z,9.40
2018-04-08T15:09:49.110Z,8.50
2018-04-08T15:12:16.628Z,11.83
2018-04-08T15:14:44.120Z,9.53
2018-04-08T15:17:11.646Z,11.37
2018-04-08T15:19:39.907Z,9.57
2018-04-08T15:22:07.426Z,8.80
2018-04-08T15:24:34.950Z,10.00
2018-04-08T15:27:02.477Z,11.33
2018-04-08T15:29:29.972Z,6.97
2018-04-08T15:31:57.491Z,14.73
2018-04-08T15:34:25.747Z,7.63
2018-04-08T15:36:53.266Z,18.67
2018-04-08T15:39:21.517Z,5.83
2018-04-08T15:41:49.039Z,9.20
2018-04-08T15:44:16.538Z,8.10
2018-04-08T15:46:44.066Z,10.80
2018-04-08T15:49:12.316Z,6.10
2018-04-08T15:51:39.809Z,7.80
2018-04-08T15:54:08.162Z,16.53
2018-04-08T15:56:35.651Z,14.60
2018-04-08T15:59:03.196Z,9.60
2018-04-08T16:01:30.680Z,8.47
2018-04-08T16:03:58.305Z,8.03
2018-04-08T16:06:25.765Z,11.57
2018-04-08T16:08:53.285Z,78.20
2018-04-08T16:11:20.775Z,11.97
2018-04-08T16:13:48.298Z,11.23
2018-04-08T16:16:15.790Z,7.97
2018-04-08T16:18:43.315Z,10.23
2018-04-08T16:21:10.802Z,15.70
2018-04-08T16:23:39.132Z,6.43
2018-04-08T16:26:06.618Z,13.17
2018-04-08T16:28:34.128Z,6.60
2018-04-08T16:31:02.417Z,7.67
2018-04-08T16:33:30.664Z,7.40
2018-04-08T16:35:58.179Z,6.80
2018-04-08T16:38:26.443Z,24.50
2018-04-08T16:40:53.971Z,124.80
2018-04-08T16:43:21.480Z,234.30
2018-04-08T16:45:49.034Z,109.90
2018-04-08T16:48:16.535Z,19.13
2018-04-08T16:50:44.055Z,9.87
2018-04-08T16:53:11.552Z,6.53
2018-04-08T16:55:39.083Z,4.83
2018-04-08T16:58:07.410Z,3.63
2018-04-08T17:00:34.972Z,11.80
2018-04-08T17:03:02.474Z,7.63
2018-04-08T17:05:30.007Z,7.57
2018-04-08T17:07:57.496Z,12.20
2018-04-08T17:10:25.030Z,10.57
2018-04-08T17:12:53.277Z,8.37
2018-04-08T17:15:20.810Z,7.80
2018-04-08T17:17:48.343Z,9.67
2018-04-08T17:20:15.885Z,7.53
2018-04-08T17:22:43.408Z,3.07
2018-04-08T17:25:11.659Z,6.60
2018-04-08T17:27:39.169Z,10.67
2018-04-08T17:30:07.431Z,10.90
2018-04-08T17:32:34.967Z,12.53
2018-04-08T17:35:02.502Z,8.30
2018-04-08T17:37:30.024Z,8.93
2018-04-08T17:39:57.511Z,9.73
2018-04-08T17:42:25.027Z,9.60
2018-04-08T17:44:52.519Z,7.70
2018-04-08T17:47:20.140Z,11.27
2018-04-08T17:49:47.659Z,8.43
2018-04-08T17:52:15.175Z,4.27
2018-04-08T17:54:42.691Z,4.77
2018-04-08T17:57:10.218Z,9.03
2018-04-08T17:59:37.703Z,6.40
2018-04-08T18:02:06.035Z,9.73
2018-04-08T18:04:33.525Z,4.53
2018-04-08T18:07:00.998Z,8.00
2018-04-08T18:09:28.519Z,9.60
2018-04-08T18:12:03.499Z,12.33
2018-04-08T18:14:31.150Z,5.53
2018-04-08T18:16:58.642Z,4.40
2018-04-08T18:19:26.167Z,12.63
2018-04-08T18:21:53.688Z,2.90
2018-04-08T18:24:21.270Z,7.53
2018-04-08T18:26:49.486Z,9.43
2018-04-08T18:29:17.003Z,8.07
2018-04-08T18:31:44.519Z,8.20
2018-04-08T18:34:12.028Z,6.80
2018-04-08T18:36:40.289Z,11.00
2018-04-08T18:39:07.876Z,17.37
2018-04-08T18:41:36.145Z,13.87
2018-04-08T18:44:03.683Z,15.97
2018-04-08T18:46:31.171Z,15.50
2018-04-08T18:48:58.697Z,15.30
2018-04-08T18:51:27.118Z,6.83
2018-04-08T18:53:55.366Z,8.60
2018-04-08T18:56:23.620Z,12.90
2018-04-08T18:58:51.139Z,9.23
2018-04-08T19:01:19.429Z,15.97
2018-04-08T19:03:46.955Z,6.20
2018-04-08T19:06:14.465Z,6.13
2018-04-08T19:08:42.755Z,6.50
2018-04-08T19:11:11.022Z,6.40
2018-04-08T19:13:39.289Z,7.20
2018-04-08T19:16:06.805Z,11.90
2018-04-08T19:18:35.061Z,6.77
2018-04-08T19:21:02.581Z,4.90
2018-04-08T19:26:12.771Z,9.73
2018-04-08T19:28:41.032Z,8.60
2018-04-08T19:31:08.664Z,10.67
2018-04-08T19:33:36.172Z,7.47
2018-04-08T19:36:03.736Z,10.63
2018-04-08T19:38:31.431Z,8.83
2018-04-08T19:40:58.944Z,6.80
2018-04-08T19:43:26.435Z,7.00
2018-04-08T19:45:53.968Z,9.17
2018-04-08T19:48:21.489Z,9.57
2018-04-08T19:50:49.833Z,12.37
2018-04-08T19:53:17.309Z,7.97
2018-04-08T19:55:44.831Z,10.00
2018-04-08T19:58:12.344Z,10.37
2018-04-08T20:00:41.643Z,11.90
2018-04-08T20:03:10.411Z,15.53
2018-04-08T20:05:37.958Z,10.90
2018-04-08T20:08:05.517Z,14.93
2018-04-08T20:10:33.088Z,7.03
2018-04-08T20:13:00.616Z,11.90
2018-04-08T20:15:28.109Z,18.83
2018-04-08T20:17:56.392Z,7.60
2018-04-08T20:20:23.871Z,11.30
2018-04-08T20:22:52.222Z,6.87
2018-04-08T20:25:19.707Z,11.90
2018-04-08T20:27:47.207Z,10.60
2018-04-08T20:30:14.728Z,5.90
2018-04-08T20:32:42.244Z,10.73
2018-04-08T20:35:09.729Z,9.17
2018-04-08T20:37:37.259Z,5.80
2018-04-08T20:40:04.756Z,13.53
2018-04-08T20:42:33.045Z,5.80
2018-04-08T20:45:00.560Z,7.70
2018-04-08T20:47:28.413Z,11.30
2018-04-08T20:49:55.939Z,11.13
2018-04-08T20:52:23.433Z,8.03
2018-04-08T20:54:50.968Z,14.97
2018-04-08T20:57:18.580Z,8.90
2018-04-08T20:59:46.103Z,12.57
2018-04-08T21:02:13.692Z,18.23
2018-04-08T21:04:41.233Z,12.97
2018-04-08T21:07:08.723Z,13.37
2018-04-08T21:09:36.355Z,8.63
2018-04-08T21:12:04.626Z,11.53
2018-04-08T21:14:32.154Z,15.43
2018-04-08T21:16:59.647Z,10.47
2018-04-08T21:19:27.169Z,14.57
2018-04-08T21:21:54.668Z,17.97
2018-04-08T21:24:22.232Z,14.70
2018-04-08T21:26:50.469Z,8.70
2018-04-08T21:29:17.987Z,6.37
2018-04-08T21:31:45.475Z,7.83
2018-04-08T21:34:12.987Z,6.67
2018-04-08T21:36:40.479Z,9.10
2018-04-08T21:39:07.995Z,13.80
2018-04-08T21:41:35.491Z,8.20
2018-04-08T21:44:03.015Z,10.10
2018-04-08T21:46:30.500Z,8.10
2018-04-08T21:48:57.988Z,12.17
2018-04-08T21:51:25.542Z,9.80
2018-04-08T21:53:53.016Z,5.77
2018-04-08T21:56:20.524Z,9.80
2018-04-08T21:58:48.007Z,16.13
2018-04-08T22:01:15.539Z,5.93
2018-04-08T22:03:43.063Z,10.90
2018-04-08T22:06:11.338Z,6.87
2018-04-08T22:08:38.822Z,9.90
2018-04-08T22:11:07.133Z,12.40
2018-04-08T22:13:34.610Z,12.30
2018-04-08T22:16:02.148Z,10.83
2018-04-08T22:18:30.411Z,11.20
2018-04-08T22:20:57.934Z,7.73
2018-04-08T22:23:25.448Z,7.67
2018-04-08T22:25:52.946Z,8.70
2018-04-08T22:28:21.201Z,8.23
2018-04-08T22:30:48.724Z,9.07
2018-04-08T22:33:16.975Z,11.27
2018-04-08T22:35:44.487Z,11.80
2018-04-08T22:38:12.778Z,15.33
2018-04-08T22:40:40.293Z,13.00
2018-04-08T22:43:07.780Z,12.97
2018-04-08T22:45:35.271Z,7.73
2018-04-08T22:48:03.617Z,10.27
2018-04-08T22:50:31.059Z,11.70
2018-04-08T22:52:58.586Z,14.67
2018-04-08T22:55:26.079Z,6.20
2018-04-08T22:57:54.376Z,8.23
2018-04-08T23:00:25.571Z,9.30
2018-04-08T23:02:53.084Z,10.90
2018-04-08T23:05:20.565Z,7.20
2018-04-08T23:07:48.849Z,8.10
2018-04-08T23:10:17.116Z,10.33
2018-04-08T23:12:44.631Z,10.73
2018-04-08T23:15:12.111Z,8.00
2018-04-08T23:17:39.627Z,5.60
2018-04-08T23:20:07.112Z,8.60
2018-04-08T23:22:34.630Z,13.27
2018-04-08T23:25:02.109Z,11.60
2018-04-08T23:27:29.634Z,7.60
2018-04-08T23:29:57.113Z,7.00
2018-04-08T23:32:25.362Z,18.17
2018-04-08T23:34:52.882Z,15.20
2018-04-08T23:37:21.139Z,8.63
2018-04-08T23:39:48.650Z,8.83
2018-04-08T23:42:16.903Z,9.43
2018-04-08T23:44:44.427Z,12.40
2018-04-08T23:47:11.922Z,13.43
2018-04-08T23:49:39.440Z,9.53
2018-04-08T23:52:07.693Z,6.80
2018-04-08T23:54:35.207Z,16.77
2018-04-08T23:57:02.715Z,10.90
2018-04-08T23:59:30.222Z,8.47
